Flight Track Log - Related Links

Times and Time Zones

All times are in EDT time to prevent confusion due to time zone crossing. See the BEE6844 flight status page for this flight to view local times or setup timezone preferences in your user account.

Time Position Orientation Groundspeed Altitude Reporting Facility
EDT Latitude Longitude Course Direction KTS MPH feet Rate Location/Type
Thu 04:59:32 AM 55.4875 -5.6187 43° Northeast 174 200 1,900  Level FlightAware UK
Thu 04:59:50 AM 55.4955 -5.6054 43° Northeast 174 200 1,900 125 Level FlightAware UK
Thu 05:00:20 AM 55.5093 -5.5859 39° Northeast 104 120 2,000 250 Climbing FlightAware UK
Thu 05:00:38 AM 55.5181 -5.5746 36° Northeast 174 200 2,100 167 Climbing FlightAware UK
Thu 05:00:56 AM 55.5272 -5.5637 34° Northeast 174 200 2,100 -26 Level FlightAware UK
Thu 05:04:26 AM 55.6422 -5.4342 32° Northeast 134 154 2,000 -53 Descending FlightAware UK
Thu 05:04:44 AM 55.6508 -5.4221 38° Northeast 174 200 1,900 -167 Descending FlightAware UK
Thu 05:05:02 AM 55.6600 -5.4088 39° Northeast 174 200 1,900  Level FlightAware UK
Thu 05:05:38 AM 55.6777 -5.3799 43° Northeast 174 200 1,900  Level FlightAware UK
Thu 05:05:56 AM 55.6862 -5.3656 44° Northeast 174 200 1,900  Level FlightAware UK
Thu 05:06:20 AM 55.6973 -5.3454 46° Northeast 130 150 1,900 -143 Level FlightAware UK
Thu 05:06:38 AM 55.7052 -5.3298 48° Northeast 174 200 1,800 -167 Descending FlightAware UK
Thu 05:06:56 AM 55.7130 -5.3139 49° Northeast 174 200 1,800  Level FlightAware UK
Thu 05:07:14 AM 55.7204 -5.2965 53° Northeast 174 200 1,800  Level FlightAware UK
Thu 05:07:32 AM 55.7275 -5.2791 54° Northeast 174 200 1,800  Level FlightAware UK
Thu 05:07:50 AM 55.7346 -5.2618 54° Northeast 174 200 1,800 -43 Level FlightAware UK
Thu 05:12:14 AM 55.8517 -5.0291 48° Northeast 142 163 1,600 -85 Descending FlightAware UK
Thu 05:12:32 AM 55.8595 -5.0116 52° Northeast 174 200 1,400 -333 Descending FlightAware UK
Thu 05:12:50 AM 55.8670 -4.9939 53° Northeast 174 200 1,400  Level FlightAware UK
Thu 05:13:14 AM 55.8753 -4.9698 58° Northeast 130 150 1,400 91 Level FlightAware UK
Thu 05:13:56 AM 55.8984 -4.9384 37° Northeast 149 171 1,500 100 Climbing FlightAware UK
Thu 05:14:14 AM 55.9094 -4.9307 21° North 174 200 1,500  Level FlightAware UK
Thu 05:14:32 AM 55.9203 -4.9243 18° North 174 200 1,500  Level FlightAware UK
Thu 05:14:56 AM 55.9349 -4.9140 22° Northeast 130 150 1,500  Level FlightAware UK
Thu 05:15:14 AM 55.9448 -4.9024 33° Northeast 174 200 1,500  Level FlightAware UK
Thu 05:15:32 AM 55.9542 -4.8882 40° Northeast 174 200 1,500  Level FlightAware UK
Thu 05:15:50 AM 55.9630 -4.8729 44° Northeast 174 200 1,500  Level FlightAware UK
Thu 05:16:08 AM 55.9694 -4.8539 59° Northeast 174 200 1,500  Level FlightAware UK
Thu 05:16:26 AM 55.9739 -4.8334 69° East 174 200 1,500 -143 Level FlightAware UK
Thu 05:16:50 AM 55.9763 -4.8033 82° East 130 150 1,400 -125 Descending FlightAware UK
Thu 05:17:14 AM 55.9778 -4.7745 85° East 130 150 1,400  Level FlightAware UK
Thu 05:17:44 AM 55.9741 -4.7363 100° East 104 120 1,400  Level FlightAware UK
Thu 05:18:02 AM 55.9711 -4.7149 104° East 174 200 1,400 167 Level FlightAware UK
Thu 05:18:20 AM 55.9679 -4.6945 106° East 174 200 1,500 500 Climbing FlightAware UK
Thu 05:18:38 AM 55.9641 -4.6744 109° East 174 200 1,700 333 Climbing FlightAware UK
Thu 05:18:56 AM 55.9597 -4.6549 112° Southeast 174 200 1,700  Level FlightAware UK
Thu 05:19:20 AM 55.9545 -4.6277 109° East 130 150 1,700  Level FlightAware UK
Thu 05:19:38 AM 55.9502 -4.6071 110° East 174 200 1,700 -375 Level FlightAware UK
Thu 05:20:08 AM 55.9433 -4.5724 110° East 104 120 1,400 -357 Descending FlightAware UK
Thu 05:21:02 AM 55.9308 -4.5152 111° Southeast 116 133 1,200 -136 Descending FlightAware UK
Thu 05:22:20 AM 55.9132 -4.4452 114° Southeast 120 138 1,100 -63 Descending FlightAware UK
Thu 05:22:38 AM 55.9048 -4.4456 182° South 174 200 1,100  Level FlightAware UK
Thu 05:22:56 AM 55.8995 -4.4562 228° Southwest 174 200 1,100  Level FlightAware UK
Thu 05:23:20 AM 55.9030 -4.4721 291° West 130 150 1,100  Level FlightAware UK
Thu 05:23:38 AM 55.9105 -4.4765 342° North 174 200 1,100  Level FlightAware UK
Thu 05:24:08 AM 55.9187 -4.4577 52° Northeast 104 120 1,100  Level FlightAware UK
Thu 05:24:26 AM 55.9201 -4.4421 81° East 174 200 1,100 162 Level FlightAware UK
Thu 05:24:45 AM 55.9219 -4.4262 78° East 165 190 1,200 324 Climbing FlightAware UK
Thu 05:25:03 AM 55.9240 -4.4121 76° East 174 200 1,300  Climbing FlightAware UK
Thu 05:25:21 AM 55.9262 -4.3975 75° East 174 200 1,200 -500 Descending FlightAware UK
Thu 05:25:39 AM 55.9281 -4.3828 77° East 174 200 1,000  Descending FlightAware UK
Thu 05:25:57 AM 55.9237 -4.3706 123° Southeast 174 200 1,200 667 Climbing FlightAware UK

Login

Don't have an account? Register now (free) for customized features, flight alerts, and more!